sensor_id;sensor_type;location;lat;lon;timestamp;P1;durP1;ratioP1;P2;durP2;ratioP2
52858;SDS011;38721;53.098;6.596;2023-05-08T00:00:32;17.00;;;14.85;;
52858;SDS011;38721;53.098;6.596;2023-05-08T00:02:57;16.15;;;13.80;;
52858;SDS011;38721;53.098;6.596;2023-05-08T00:05:23;18.23;;;14.40;;
52858;SDS011;38721;53.098;6.596;2023-05-08T00:07:52;16.50;;;13.93;;
52858;SDS011;38721;53.098;6.596;2023-05-08T00:10:25;17.23;;;14.45;;
52858;SDS011;38721;53.098;6.596;2023-05-08T00:12:51;16.17;;;14.18;;
52858;SDS011;38721;53.098;6.596;2023-05-08T00:15:17;19.15;;;14.98;;
52858;SDS011;38721;53.098;6.596;2023-05-08T00:17:43;17.15;;;13.98;;
52858;SDS011;38721;53.098;6.596;2023-05-08T00:20:09;17.60;;;14.38;;
52858;SDS011;38721;53.098;6.596;2023-05-08T00:22:35;17.27;;;14.50;;
52858;SDS011;38721;53.098;6.596;2023-05-08T00:25:01;16.88;;;14.73;;
52858;SDS011;38721;53.098;6.596;2023-05-08T00:27:29;17.70;;;14.60;;
52858;SDS011;38721;53.098;6.596;2023-05-08T00:29:57;17.25;;;15.30;;
52858;SDS011;38721;53.098;6.596;2023-05-08T00:32:23;16.10;;;14.38;;
52858;SDS011;38721;53.098;6.596;2023-05-08T00:34:49;17.33;;;14.80;;
52858;SDS011;38721;53.098;6.596;2023-05-08T00:37:15;17.23;;;15.05;;
52858;SDS011;38721;53.098;6.596;2023-05-08T00:39:41;17.08;;;14.50;;
52858;SDS011;38721;53.098;6.596;2023-05-08T00:42:07;17.30;;;15.40;;
52858;SDS011;38721;53.098;6.596;2023-05-08T00:44:32;16.63;;;14.88;;
52858;SDS011;38721;53.098;6.596;2023-05-08T00:46:58;17.25;;;15.10;;
52858;SDS011;38721;53.098;6.596;2023-05-08T00:49:24;19.95;;;15.13;;
52858;SDS011;38721;53.098;6.596;2023-05-08T00:51:53;17.50;;;15.60;;
52858;SDS011;38721;53.098;6.596;2023-05-08T00:54:20;18.92;;;15.48;;
52858;SDS011;38721;53.098;6.596;2023-05-08T00:56:46;19.60;;;15.50;;
52858;SDS011;38721;53.098;6.596;2023-05-08T00:59:15;17.73;;;15.57;;
52858;SDS011;38721;53.098;6.596;2023-05-08T01:01:42;18.45;;;16.23;;
52858;SDS011;38721;53.098;6.596;2023-05-08T01:04:08;16.85;;;15.05;;
52858;SDS011;38721;53.098;6.596;2023-05-08T01:06:34;17.50;;;14.90;;
52858;SDS011;38721;53.098;6.596;2023-05-08T01:09:01;17.77;;;15.77;;
52858;SDS011;38721;53.098;6.596;2023-05-08T01:16:44;19.33;;;15.02;;
52858;SDS011;38721;53.098;6.596;2023-05-08T01:22:19;17.85;;;15.95;;
52858;SDS011;38721;53.098;6.596;2023-05-08T01:28:06;18.95;;;15.60;;
52858;SDS011;38721;53.098;6.596;2023-05-08T01:34:02;18.17;;;15.55;;
52858;SDS011;38721;53.098;6.596;2023-05-08T01:36:33;18.02;;;15.75;;
52858;SDS011;38721;53.098;6.596;2023-05-08T01:42:06;17.85;;;15.23;;
52858;SDS011;38721;53.098;6.596;2023-05-08T01:44:37;19.25;;;15.95;;
52858;SDS011;38721;53.098;6.596;2023-05-08T01:47:09;18.58;;;15.95;;
52858;SDS011;38721;53.098;6.596;2023-05-08T01:49:37;20.38;;;17.05;;
52858;SDS011;38721;53.098;6.596;2023-05-08T01:52:12;19.85;;;17.15;;
52858;SDS011;38721;53.098;6.596;2023-05-08T01:54:47;20.50;;;16.58;;
52858;SDS011;38721;53.098;6.596;2023-05-08T01:57:20;17.98;;;16.08;;
52858;SDS011;38721;53.098;6.596;2023-05-08T01:59:48;18.58;;;16.15;;
52858;SDS011;38721;53.098;6.596;2023-05-08T02:02:16;19.05;;;16.20;;
52858;SDS011;38721;53.098;6.596;2023-05-08T02:04:43;18.60;;;16.27;;
52858;SDS011;38721;53.098;6.596;2023-05-08T02:07:09;18.95;;;15.90;;
52858;SDS011;38721;53.098;6.596;2023-05-08T02:09:35;20.20;;;15.70;;
52858;SDS011;38721;53.098;6.596;2023-05-08T02:12:03;19.67;;;16.45;;
52858;SDS011;38721;53.098;6.596;2023-05-08T02:14:31;18.33;;;16.02;;
52858;SDS011;38721;53.098;6.596;2023-05-08T02:16:58;19.13;;;16.50;;
52858;SDS011;38721;53.098;6.596;2023-05-08T02:19:26;18.42;;;16.42;;
52858;SDS011;38721;53.098;6.596;2023-05-08T02:21:54;21.45;;;17.02;;
52858;SDS011;38721;53.098;6.596;2023-05-08T02:24:21;18.00;;;16.02;;
52858;SDS011;38721;53.098;6.596;2023-05-08T02:26:48;20.52;;;16.77;;
52858;SDS011;38721;53.098;6.596;2023-05-08T02:29:14;19.33;;;16.67;;
52858;SDS011;38721;53.098;6.596;2023-05-08T02:31:41;22.40;;;16.83;;
52858;SDS011;38721;53.098;6.596;2023-05-08T02:34:09;19.33;;;17.23;;
52858;SDS011;38721;53.098;6.596;2023-05-08T02:36:36;19.83;;;17.05;;
52858;SDS011;38721;53.098;6.596;2023-05-08T02:39:03;22.02;;;16.48;;
52858;SDS011;38721;53.098;6.596;2023-05-08T02:41:32;18.25;;;15.73;;
52858;SDS011;38721;53.098;6.596;2023-05-08T02:43:59;19.77;;;17.02;;
52858;SDS011;38721;53.098;6.596;2023-05-08T02:46:43;19.77;;;16.73;;
52858;SDS011;38721;53.098;6.596;2023-05-08T02:52:09;19.83;;;16.85;;
52858;SDS011;38721;53.098;6.596;2023-05-08T02:54:46;20.63;;;16.60;;
52858;SDS011;38721;53.098;6.596;2023-05-08T03:00:02;19.73;;;16.42;;
52858;SDS011;38721;53.098;6.596;2023-05-08T03:02:42;19.77;;;16.80;;
52858;SDS011;38721;53.098;6.596;2023-05-08T03:05:19;18.30;;;16.20;;
52858;SDS011;38721;53.098;6.596;2023-05-08T03:07:59;20.63;;;16.87;;
52858;SDS011;38721;53.098;6.596;2023-05-08T03:10:28;20.13;;;17.33;;
52858;SDS011;38721;53.098;6.596;2023-05-08T03:12:58;21.55;;;17.48;;
52858;SDS011;38721;53.098;6.596;2023-05-08T03:15:28;21.20;;;16.02;;
52858;SDS011;38721;53.098;6.596;2023-05-08T03:18:01;22.55;;;17.63;;
52858;SDS011;38721;53.098;6.596;2023-05-08T03:20:33;21.35;;;17.00;;
52858;SDS011;38721;53.098;6.596;2023-05-08T03:23:03;21.48;;;16.77;;
52858;SDS011;38721;53.098;6.596;2023-05-08T03:25:30;20.98;;;16.42;;
52858;SDS011;38721;53.098;6.596;2023-05-08T03:27:58;19.27;;;15.52;;
52858;SDS011;38721;53.098;6.596;2023-05-08T03:30:24;21.23;;;16.90;;
52858;SDS011;38721;53.098;6.596;2023-05-08T03:32:51;21.13;;;16.73;;
52858;SDS011;38721;53.098;6.596;2023-05-08T03:35:21;20.63;;;16.95;;
52858;SDS011;38721;53.098;6.596;2023-05-08T03:37:47;20.52;;;16.77;;
52858;SDS011;38721;53.098;6.596;2023-05-08T03:40:13;20.55;;;16.15;;
52858;SDS011;38721;53.098;6.596;2023-05-08T03:42:38;20.05;;;16.30;;
52858;SDS011;38721;53.098;6.596;2023-05-08T03:45:05;20.20;;;16.75;;
52858;SDS011;38721;53.098;6.596;2023-05-08T03:47:34;20.83;;;16.02;;
52858;SDS011;38721;53.098;6.596;2023-05-08T03:50:00;20.38;;;16.23;;
52858;SDS011;38721;53.098;6.596;2023-05-08T03:52:26;22.40;;;16.42;;
52858;SDS011;38721;53.098;6.596;2023-05-08T03:54:52;19.67;;;16.35;;
52858;SDS011;38721;53.098;6.596;2023-05-08T03:57:18;22.55;;;16.35;;
52858;SDS011;38721;53.098;6.596;2023-05-08T03:59:59;22.08;;;17.10;;
52858;SDS011;38721;53.098;6.596;2023-05-08T04:05:09;21.67;;;16.00;;
52858;SDS011;38721;53.098;6.596;2023-05-08T04:07:46;21.48;;;16.38;;
52858;SDS011;38721;53.098;6.596;2023-05-08T04:13:09;20.90;;;16.27;;
52858;SDS011;38721;53.098;6.596;2023-05-08T04:15:39;19.80;;;15.68;;
52858;SDS011;38721;53.098;6.596;2023-05-08T04:18:13;19.08;;;15.55;;
52858;SDS011;38721;53.098;6.596;2023-05-08T04:20:42;20.17;;;15.18;;
52858;SDS011;38721;53.098;6.596;2023-05-08T04:23:12;18.73;;;15.27;;
52858;SDS011;38721;53.098;6.596;2023-05-08T04:25:41;20.58;;;15.32;;
52858;SDS011;38721;53.098;6.596;2023-05-08T04:28:08;21.35;;;15.60;;
52858;SDS011;38721;53.098;6.596;2023-05-08T04:30:35;19.05;;;15.85;;
52858;SDS011;38721;53.098;6.596;2023-05-08T04:33:01;19.92;;;15.65;;
52858;SDS011;38721;53.098;6.596;2023-05-08T04:35:29;17.80;;;14.85;;
52858;SDS011;38721;53.098;6.596;2023-05-08T04:37:55;20.50;;;16.10;;
52858;SDS011;38721;53.098;6.596;2023-05-08T04:40:22;18.73;;;14.65;;
52858;SDS011;38721;53.098;6.596;2023-05-08T04:42:48;17.25;;;14.77;;
52858;SDS011;38721;53.098;6.596;2023-05-08T04:45:13;16.80;;;14.20;;
52858;SDS011;38721;53.098;6.596;2023-05-08T04:47:39;17.60;;;14.80;;
52858;SDS011;38721;53.098;6.596;2023-05-08T04:50:05;18.10;;;14.48;;
52858;SDS011;38721;53.098;6.596;2023-05-08T04:52:31;18.77;;;14.77;;
52858;SDS011;38721;53.098;6.596;2023-05-08T04:54:57;22.75;;;15.32;;
52858;SDS011;38721;53.098;6.596;2023-05-08T04:57:22;17.35;;;14.63;;
52858;SDS011;38721;53.098;6.596;2023-05-08T04:59:48;19.35;;;14.45;;
52858;SDS011;38721;53.098;6.596;2023-05-08T05:02:14;17.42;;;14.10;;
52858;SDS011;38721;53.098;6.596;2023-05-08T05:04:39;18.27;;;14.57;;
52858;SDS011;38721;53.098;6.596;2023-05-08T05:07:05;17.42;;;13.50;;
52858;SDS011;38721;53.098;6.596;2023-05-08T05:09:31;16.48;;;14.18;;
52858;SDS011;38721;53.098;6.596;2023-05-08T05:12:01;19.55;;;13.73;;
52858;SDS011;38721;53.098;6.596;2023-05-08T05:14:27;16.77;;;13.38;;
52858;SDS011;38721;53.098;6.596;2023-05-08T05:16:56;15.18;;;13.07;;
52858;SDS011;38721;53.098;6.596;2023-05-08T05:19:22;15.57;;;13.70;;
52858;SDS011;38721;53.098;6.596;2023-05-08T05:21:48;15.07;;;12.32;;
52858;SDS011;38721;53.098;6.596;2023-05-08T05:24:13;16.67;;;12.80;;
52858;SDS011;38721;53.098;6.596;2023-05-08T05:26:39;14.85;;;12.93;;
52858;SDS011;38721;53.098;6.596;2023-05-08T05:29:05;15.13;;;13.43;;
52858;SDS011;38721;53.098;6.596;2023-05-08T05:31:31;15.98;;;12.80;;
52858;SDS011;38721;53.098;6.596;2023-05-08T05:33:56;14.18;;;12.18;;
52858;SDS011;38721;53.098;6.596;2023-05-08T05:36:25;14.60;;;12.93;;
52858;SDS011;38721;53.098;6.596;2023-05-08T05:38:50;14.05;;;12.23;;
52858;SDS011;38721;53.098;6.596;2023-05-08T05:41:16;13.55;;;11.93;;
52858;SDS011;38721;53.098;6.596;2023-05-08T05:43:42;14.05;;;12.20;;
52858;SDS011;38721;53.098;6.596;2023-05-08T05:46:08;14.15;;;12.48;;
52858;SDS011;38721;53.098;6.596;2023-05-08T05:48:34;13.65;;;11.82;;
52858;SDS011;38721;53.098;6.596;2023-05-08T05:51:00;13.50;;;12.00;;
52858;SDS011;38721;53.098;6.596;2023-05-08T05:53:26;13.77;;;12.30;;
52858;SDS011;38721;53.098;6.596;2023-05-08T05:55:51;18.08;;;12.15;;
52858;SDS011;38721;53.098;6.596;2023-05-08T05:58:17;14.10;;;12.60;;
52858;SDS011;38721;53.098;6.596;2023-05-08T06:00:43;13.90;;;12.02;;
52858;SDS011;38721;53.098;6.596;2023-05-08T06:03:09;13.48;;;11.52;;
52858;SDS011;38721;53.098;6.596;2023-05-08T06:05:36;13.43;;;11.40;;
52858;SDS011;38721;53.098;6.596;2023-05-08T06:08:02;13.52;;;11.70;;
52858;SDS011;38721;53.098;6.596;2023-05-08T06:10:32;13.77;;;11.85;;
52858;SDS011;38721;53.098;6.596;2023-05-08T06:12:58;14.02;;;12.27;;
52858;SDS011;38721;53.098;6.596;2023-05-08T06:15:24;13.88;;;12.07;;
52858;SDS011;38721;53.098;6.596;2023-05-08T06:17:50;13.55;;;12.05;;
52858;SDS011;38721;53.098;6.596;2023-05-08T06:20:16;13.55;;;10.93;;
52858;SDS011;38721;53.098;6.596;2023-05-08T06:22:42;13.40;;;12.00;;
52858;SDS011;38721;53.098;6.596;2023-05-08T06:25:08;12.52;;;11.18;;
52858;SDS011;38721;53.098;6.596;2023-05-08T06:27:35;12.57;;;11.27;;
52858;SDS011;38721;53.098;6.596;2023-05-08T06:30:01;12.23;;;10.93;;
52858;SDS011;38721;53.098;6.596;2023-05-08T06:32:28;15.18;;;11.68;;
52858;SDS011;38721;53.098;6.596;2023-05-08T06:34:54;12.40;;;11.10;;
52858;SDS011;38721;53.098;6.596;2023-05-08T06:37:20;12.65;;;11.35;;
52858;SDS011;38721;53.098;6.596;2023-05-08T06:39:46;12.60;;;11.23;;
52858;SDS011;38721;53.098;6.596;2023-05-08T06:42:12;15.02;;;11.13;;
52858;SDS011;38721;53.098;6.596;2023-05-08T06:44:38;12.77;;;10.75;;
52858;SDS011;38721;53.098;6.596;2023-05-08T06:47:04;12.82;;;11.55;;
52858;SDS011;38721;53.098;6.596;2023-05-08T06:49:30;12.77;;;11.48;;
52858;SDS011;38721;53.098;6.596;2023-05-08T06:51:56;13.82;;;12.48;;
52858;SDS011;38721;53.098;6.596;2023-05-08T06:54:22;13.07;;;11.65;;
52858;SDS011;38721;53.098;6.596;2023-05-08T06:56:48;12.80;;;11.50;;
52858;SDS011;38721;53.098;6.596;2023-05-08T06:59:14;13.88;;;12.05;;
52858;SDS011;38721;53.098;6.596;2023-05-08T07:01:39;13.55;;;12.15;;
52858;SDS011;38721;53.098;6.596;2023-05-08T07:04:08;13.70;;;11.70;;
52858;SDS011;38721;53.098;6.596;2023-05-08T07:06:33;13.75;;;11.07;;
52858;SDS011;38721;53.098;6.596;2023-05-08T07:08:59;16.73;;;11.95;;
52858;SDS011;38721;53.098;6.596;2023-05-08T07:11:25;14.52;;;11.43;;
52858;SDS011;38721;53.098;6.596;2023-05-08T07:13:50;16.00;;;11.82;;
52858;SDS011;38721;53.098;6.596;2023-05-08T07:16:16;12.45;;;11.20;;
52858;SDS011;38721;53.098;6.596;2023-05-08T07:18:42;12.45;;;11.15;;
52858;SDS011;38721;53.098;6.596;2023-05-08T07:21:08;12.48;;;11.18;;
52858;SDS011;38721;53.098;6.596;2023-05-08T07:23:35;12.88;;;11.45;;
52858;SDS011;38721;53.098;6.596;2023-05-08T07:26:00;13.27;;;11.30;;
52858;SDS011;38721;53.098;6.596;2023-05-08T07:28:26;12.07;;;10.88;;
52858;SDS011;38721;53.098;6.596;2023-05-08T07:30:52;13.60;;;11.07;;
52858;SDS011;38721;53.098;6.596;2023-05-08T07:33:18;12.55;;;10.85;;
52858;SDS011;38721;53.098;6.596;2023-05-08T07:35:44;12.18;;;10.90;;
52858;SDS011;38721;53.098;6.596;2023-05-08T07:38:10;13.90;;;10.80;;
52858;SDS011;38721;53.098;6.596;2023-05-08T07:40:35;11.43;;;10.23;;
52858;SDS011;38721;53.098;6.596;2023-05-08T07:43:04;13.52;;;11.20;;
52858;SDS011;38721;53.098;6.596;2023-05-08T07:45:29;11.63;;;10.50;;
52858;SDS011;38721;53.098;6.596;2023-05-08T07:47:56;14.02;;;11.30;;
52858;SDS011;38721;53.098;6.596;2023-05-08T07:50:23;11.13;;;10.02;;
52858;SDS011;38721;53.098;6.596;2023-05-08T07:52:50;13.13;;;10.88;;
52858;SDS011;38721;53.098;6.596;2023-05-08T07:55:16;12.25;;;11.02;;
52858;SDS011;38721;53.098;6.596;2023-05-08T07:57:42;12.13;;;10.93;;
52858;SDS011;38721;53.098;6.596;2023-05-08T08:00:10;11.40;;;10.20;;
52858;SDS011;38721;53.098;6.596;2023-05-08T08:02:38;13.20;;;11.13;;
52858;SDS011;38721;53.098;6.596;2023-05-08T08:05:04;11.45;;;10.32;;
52858;SDS011;38721;53.098;6.596;2023-05-08T08:07:30;11.18;;;10.07;;
52858;SDS011;38721;53.098;6.596;2023-05-08T08:09:57;12.00;;;10.77;;
52858;SDS011;38721;53.098;6.596;2023-05-08T08:12:26;12.07;;;10.88;;
52858;SDS011;38721;53.098;6.596;2023-05-08T08:14:52;11.50;;;10.30;;
52858;SDS011;38721;53.098;6.596;2023-05-08T08:17:18;11.70;;;10.25;;
52858;SDS011;38721;53.098;6.596;2023-05-08T08:19:44;12.27;;;10.95;;
52858;SDS011;38721;53.098;6.596;2023-05-08T08:22:10;11.55;;;10.32;;
52858;SDS011;38721;53.098;6.596;2023-05-08T08:24:36;12.02;;;10.60;;
52858;SDS011;38721;53.098;6.596;2023-05-08T08:27:02;13.07;;;10.50;;
52858;SDS011;38721;53.098;6.596;2023-05-08T08:29:28;12.13;;;10.82;;
52858;SDS011;38721;53.098;6.596;2023-05-08T08:31:54;12.45;;;10.88;;
52858;SDS011;38721;53.098;6.596;2023-05-08T08:34:20;13.00;;;11.05;;
52858;SDS011;38721;53.098;6.596;2023-05-08T08:36:46;12.27;;;10.98;;
52858;SDS011;38721;53.098;6.596;2023-05-08T08:39:12;12.23;;;10.93;;
52858;SDS011;38721;53.098;6.596;2023-05-08T08:41:38;12.00;;;10.80;;
52858;SDS011;38721;53.098;6.596;2023-05-08T08:44:04;12.27;;;11.07;;
52858;SDS011;38721;53.098;6.596;2023-05-08T08:46:31;12.48;;;11.18;;
52858;SDS011;38721;53.098;6.596;2023-05-08T08:48:57;12.88;;;11.55;;
52858;SDS011;38721;53.098;6.596;2023-05-08T08:51:27;12.25;;;10.95;;
52858;SDS011;38721;53.098;6.596;2023-05-08T08:54:19;12.23;;;10.65;;
52858;SDS011;38721;53.098;6.596;2023-05-08T08:56:47;12.77;;;11.38;;
52858;SDS011;38721;53.098;6.596;2023-05-08T08:59:14;12.27;;;11.02;;
52858;SDS011;38721;53.098;6.596;2023-05-08T09:01:43;12.13;;;10.77;;
52858;SDS011;38721;53.098;6.596;2023-05-08T09:04:11;12.55;;;11.23;;
52858;SDS011;38721;53.098;6.596;2023-05-08T09:06:37;12.10;;;10.70;;
52858;SDS011;38721;53.098;6.596;2023-05-08T09:09:05;11.95;;;10.85;;
52858;SDS011;38721;53.098;6.596;2023-05-08T09:11:31;13.32;;;11.00;;
52858;SDS011;38721;53.098;6.596;2023-05-08T09:13:58;12.38;;;11.18;;
52858;SDS011;38721;53.098;6.596;2023-05-08T09:16:24;12.27;;;10.52;;
52858;SDS011;38721;53.098;6.596;2023-05-08T09:18:51;14.40;;;10.90;;
52858;SDS011;38721;53.098;6.596;2023-05-08T09:21:17;12.52;;;11.32;;
52858;SDS011;38721;53.098;6.596;2023-05-08T09:29:12;13.35;;;11.35;;
52858;SDS011;38721;53.098;6.596;2023-05-08T09:31:43;16.63;;;12.02;;
52858;SDS011;38721;53.098;6.596;2023-05-08T09:34:11;12.63;;;11.32;;
52858;SDS011;38721;53.098;6.596;2023-05-08T09:39:29;13.45;;;12.15;;
52858;SDS011;38721;53.098;6.596;2023-05-08T09:41:55;12.68;;;11.35;;
52858;SDS011;38721;53.098;6.596;2023-05-08T09:44:22;13.27;;;12.00;;
52858;SDS011;38721;53.098;6.596;2023-05-08T09:46:48;13.02;;;11.43;;
52858;SDS011;38721;53.098;6.596;2023-05-08T09:49:17;13.10;;;11.80;;
52858;SDS011;38721;53.098;6.596;2023-05-08T09:51:52;12.57;;;11.10;;
52858;SDS011;38721;53.098;6.596;2023-05-08T09:54:19;13.63;;;12.23;;
52858;SDS011;38721;53.098;6.596;2023-05-08T09:56:44;12.73;;;11.40;;
52858;SDS011;38721;53.098;6.596;2023-05-08T09:59:26;16.95;;;12.73;;
52858;SDS011;38721;53.098;6.596;2023-05-08T10:01:56;13.93;;;12.50;;
52858;SDS011;38721;53.098;6.596;2023-05-08T10:04:31;14.75;;;13.10;;
52858;SDS011;38721;53.098;6.596;2023-05-08T10:07:01;14.13;;;12.63;;
52858;SDS011;38721;53.098;6.596;2023-05-08T10:09:30;14.15;;;12.75;;
52858;SDS011;38721;53.098;6.596;2023-05-08T10:11:55;15.23;;;13.63;;
52858;SDS011;38721;53.098;6.596;2023-05-08T10:14:21;14.70;;;13.30;;
52858;SDS011;38721;53.098;6.596;2023-05-08T10:16:49;15.93;;;13.27;;
52858;SDS011;38721;53.098;6.596;2023-05-08T10:19:20;16.08;;;14.38;;
52858;SDS011;38721;53.098;6.596;2023-05-08T10:21:47;14.38;;;12.98;;
52858;SDS011;38721;53.098;6.596;2023-05-08T10:24:16;14.55;;;13.07;;
52858;SDS011;38721;53.098;6.596;2023-05-08T10:26:47;16.80;;;13.90;;
52858;SDS011;38721;53.098;6.596;2023-05-08T10:29:33;15.63;;;13.93;;
52858;SDS011;38721;53.098;6.596;2023-05-08T10:32:08;14.57;;;13.18;;
52858;SDS011;38721;53.098;6.596;2023-05-08T10:34:34;15.43;;;13.85;;
52858;SDS011;38721;53.098;6.596;2023-05-08T10:37:06;14.77;;;13.27;;
52858;SDS011;38721;53.098;6.596;2023-05-08T10:39:36;15.57;;;14.07;;
52858;SDS011;38721;53.098;6.596;2023-05-08T10:42:06;16.48;;;13.30;;
52858;SDS011;38721;53.098;6.596;2023-05-08T10:44:32;14.82;;;13.23;;
52858;SDS011;38721;53.098;6.596;2023-05-08T10:47:15;15.93;;;14.32;;
52858;SDS011;38721;53.098;6.596;2023-05-08T10:52:33;14.98;;;13.48;;
52858;SDS011;38721;53.098;6.596;2023-05-08T10:58:09;15.50;;;13.80;;
52858;SDS011;38721;53.098;6.596;2023-05-08T11:03:21;14.45;;;13.02;;
52858;SDS011;38721;53.098;6.596;2023-05-08T11:05:49;14.55;;;13.05;;
52858;SDS011;38721;53.098;6.596;2023-05-08T11:08:17;14.60;;;13.20;;
52858;SDS011;38721;53.098;6.596;2023-05-08T11:16:00;15.10;;;13.38;;
52858;SDS011;38721;53.098;6.596;2023-05-08T11:18:27;14.90;;;12.90;;
52858;SDS011;38721;53.098;6.596;2023-05-08T11:21:00;15.05;;;12.93;;
52858;SDS011;38721;53.098;6.596;2023-05-08T11:23:33;13.00;;;11.70;;
52858;SDS011;38721;53.098;6.596;2023-05-08T11:26:01;13.85;;;12.50;;
52858;SDS011;38721;53.098;6.596;2023-05-08T11:28:37;14.10;;;12.60;;
52858;SDS011;38721;53.098;6.596;2023-05-08T11:31:04;13.68;;;12.27;;
52858;SDS011;38721;53.098;6.596;2023-05-08T11:33:32;14.35;;;12.95;;
52858;SDS011;38721;53.098;6.596;2023-05-08T11:36:22;13.88;;;12.38;;
52858;SDS011;38721;53.098;6.596;2023-05-08T11:39:04;13.90;;;12.32;;
52858;SDS011;38721;53.098;6.596;2023-05-08T11:41:39;16.25;;;13.18;;
52858;SDS011;38721;53.098;6.596;2023-05-08T11:49:14;14.98;;;13.30;;
52858;SDS011;38721;53.098;6.596;2023-05-08T11:51:41;15.25;;;13.13;;
52858;SDS011;38721;53.098;6.596;2023-05-08T11:54:11;13.13;;;11.82;;
52858;SDS011;38721;53.098;6.596;2023-05-08T11:56:38;12.98;;;11.68;;
52858;SDS011;38721;53.098;6.596;2023-05-08T11:59:04;13.30;;;11.90;;
52858;SDS011;38721;53.098;6.596;2023-05-08T12:01:32;13.70;;;12.27;;
52858;SDS011;38721;53.098;6.596;2023-05-08T12:03:59;14.13;;;12.73;;
52858;SDS011;38721;53.098;6.596;2023-05-08T12:06:36;13.60;;;11.18;;
52858;SDS011;38721;53.098;6.596;2023-05-08T12:09:08;11.52;;;9.63;;
52858;SDS011;38721;53.098;6.596;2023-05-08T12:11:41;12.00;;;10.68;;
52858;SDS011;38721;53.098;6.596;2023-05-08T12:14:09;10.30;;;9.18;;
52858;SDS011;38721;53.098;6.596;2023-05-08T12:16:37;11.05;;;9.95;;
52858;SDS011;38721;53.098;6.596;2023-05-08T12:19:04;11.23;;;10.13;;
52858;SDS011;38721;53.098;6.596;2023-05-08T12:21:34;16.35;;;12.10;;
52858;SDS011;38721;53.098;6.596;2023-05-08T12:24:00;12.15;;;10.95;;
52858;SDS011;38721;53.098;6.596;2023-05-08T12:26:33;12.20;;;10.75;;
52858;SDS011;38721;53.098;6.596;2023-05-08T12:29:01;11.38;;;9.82;;
52858;SDS011;38721;53.098;6.596;2023-05-08T12:31:29;11.40;;;9.55;;
52858;SDS011;38721;53.098;6.596;2023-05-08T12:33:54;11.27;;;10.10;;
52858;SDS011;38721;53.098;6.596;2023-05-08T12:36:20;14.80;;;10.20;;
52858;SDS011;38721;53.098;6.596;2023-05-08T12:38:46;12.65;;;11.38;;
52858;SDS011;38721;53.098;6.596;2023-05-08T12:41:13;11.43;;;10.25;;
52858;SDS011;38721;53.098;6.596;2023-05-08T12:43:39;12.80;;;11.48;;
52858;SDS011;38721;53.098;6.596;2023-05-08T12:46:04;11.35;;;10.07;;
52858;SDS011;38721;53.098;6.596;2023-05-08T12:48:35;13.32;;;12.02;;
52858;SDS011;38721;53.098;6.596;2023-05-08T12:51:04;13.55;;;12.10;;
52858;SDS011;38721;53.098;6.596;2023-05-08T12:53:31;13.32;;;11.95;;
52858;SDS011;38721;53.098;6.596;2023-05-08T12:55:59;13.98;;;12.57;;
52858;SDS011;38721;53.098;6.596;2023-05-08T12:58:28;12.30;;;11.10;;
52858;SDS011;38721;53.098;6.596;2023-05-08T13:01:14;11.75;;;10.60;;
52858;SDS011;38721;53.098;6.596;2023-05-08T13:03:40;11.30;;;10.18;;
52858;SDS011;38721;53.098;6.596;2023-05-08T13:06:06;11.38;;;10.00;;
52858;SDS011;38721;53.098;6.596;2023-05-08T13:08:44;11.65;;;10.45;;
52858;SDS011;38721;53.098;6.596;2023-05-08T13:11:10;11.13;;;9.90;;
52858;SDS011;38721;53.098;6.596;2023-05-08T13:13:35;10.93;;;9.82;;
52858;SDS011;38721;53.098;6.596;2023-05-08T13:16:02;12.55;;;11.35;;
52858;SDS011;38721;53.098;6.596;2023-05-08T13:18:29;9.13;;;8.30;;
52858;SDS011;38721;53.098;6.596;2023-05-08T13:21:00;10.75;;;9.75;;
52858;SDS011;38721;53.098;6.596;2023-05-08T13:23:26;11.82;;;8.95;;
52858;SDS011;38721;53.098;6.596;2023-05-08T13:25:52;9.70;;;8.40;;
52858;SDS011;38721;53.098;6.596;2023-05-08T13:28:18;17.63;;;8.23;;
52858;SDS011;38721;53.098;6.596;2023-05-08T13:30:43;10.07;;;7.78;;
52858;SDS011;38721;53.098;6.596;2023-05-08T13:33:09;12.07;;;7.95;;
52858;SDS011;38721;53.098;6.596;2023-05-08T13:35:36;9.43;;;8.40;;
52858;SDS011;38721;53.098;6.596;2023-05-08T13:38:02;11.30;;;8.30;;
52858;SDS011;38721;53.098;6.596;2023-05-08T13:40:28;9.18;;;8.27;;
52858;SDS011;38721;53.098;6.596;2023-05-08T13:42:53;11.55;;;8.98;;
52858;SDS011;38721;53.098;6.596;2023-05-08T13:45:19;10.80;;;9.00;;
52858;SDS011;38721;53.098;6.596;2023-05-08T13:47:46;11.25;;;7.63;;
52858;SDS011;38721;53.098;6.596;2023-05-08T13:50:13;9.15;;;8.25;;
52858;SDS011;38721;53.098;6.596;2023-05-08T13:52:40;8.10;;;7.15;;
52858;SDS011;38721;53.098;6.596;2023-05-08T13:55:07;9.45;;;8.05;;
52858;SDS011;38721;53.098;6.596;2023-05-08T13:57:34;10.60;;;9.00;;
52858;SDS011;38721;53.098;6.596;2023-05-08T14:00:00;10.95;;;9.10;;
52858;SDS011;38721;53.098;6.596;2023-05-08T14:02:27;11.23;;;9.40;;
52858;SDS011;38721;53.098;6.596;2023-05-08T14:04:52;9.40;;;8.50;;
52858;SDS011;38721;53.098;6.596;2023-05-08T14:07:18;10.15;;;8.20;;
52858;SDS011;38721;53.098;6.596;2023-05-08T14:09:44;9.43;;;8.52;;
52858;SDS011;38721;53.098;6.596;2023-05-08T14:12:11;10.23;;;8.90;;
52858;SDS011;38721;53.098;6.596;2023-05-08T14:14:37;10.43;;;9.32;;
52858;SDS011;38721;53.098;6.596;2023-05-08T14:17:03;9.73;;;8.73;;
52858;SDS011;38721;53.098;6.596;2023-05-08T14:19:28;11.63;;;8.60;;
52858;SDS011;38721;53.098;6.596;2023-05-08T14:21:54;12.70;;;9.88;;
52858;SDS011;38721;53.098;6.596;2023-05-08T14:24:20;11.80;;;10.27;;
52858;SDS011;38721;53.098;6.596;2023-05-08T14:26:45;10.00;;;9.10;;
52858;SDS011;38721;53.098;6.596;2023-05-08T14:29:14;10.32;;;8.48;;
52858;SDS011;38721;53.098;6.596;2023-05-08T14:31:40;9.75;;;8.73;;
52858;SDS011;38721;53.098;6.596;2023-05-08T14:34:06;8.55;;;7.18;;
52858;SDS011;38721;53.098;6.596;2023-05-08T14:36:31;9.00;;;8.10;;
52858;SDS011;38721;53.098;6.596;2023-05-08T14:38:57;7.93;;;7.22;;
52858;SDS011;38721;53.098;6.596;2023-05-08T14:41:27;9.57;;;8.10;;
52858;SDS011;38721;53.098;6.596;2023-05-08T14:43:53;10.15;;;8.35;;
52858;SDS011;38721;53.098;6.596;2023-05-08T14:46:22;8.52;;;7.68;;
52858;SDS011;38721;53.098;6.596;2023-05-08T14:48:48;9.65;;;8.68;;
52858;SDS011;38721;53.098;6.596;2023-05-08T14:51:14;10.35;;;8.07;;
52858;SDS011;38721;53.098;6.596;2023-05-08T14:53:40;9.48;;;7.88;;
52858;SDS011;38721;53.098;6.596;2023-05-08T14:56:06;9.45;;;8.13;;
52858;SDS011;38721;53.098;6.596;2023-05-08T14:58:32;9.05;;;7.50;;
52858;SDS011;38721;53.098;6.596;2023-05-08T15:00:57;8.60;;;7.80;;
52858;SDS011;38721;53.098;6.596;2023-05-08T15:03:23;9.48;;;7.93;;
52858;SDS011;38721;53.098;6.596;2023-05-08T15:05:49;10.00;;;8.02;;
52858;SDS011;38721;53.098;6.596;2023-05-08T15:08:15;9.50;;;8.30;;
52858;SDS011;38721;53.098;6.596;2023-05-08T15:10:41;8.40;;;7.50;;
52858;SDS011;38721;53.098;6.596;2023-05-08T15:13:06;10.25;;;8.18;;
52858;SDS011;38721;53.098;6.596;2023-05-08T15:15:32;9.52;;;8.63;;
52858;SDS011;38721;53.098;6.596;2023-05-08T15:17:58;9.05;;;8.05;;
52858;SDS011;38721;53.098;6.596;2023-05-08T15:20:24;8.00;;;7.20;;
52858;SDS011;38721;53.098;6.596;2023-05-08T15:22:49;8.35;;;7.55;;
52858;SDS011;38721;53.098;6.596;2023-05-08T15:25:15;9.43;;;7.82;;